Time;durP1;ratioP1;P1;durP2;ratioP2;P2;SDS_P1;SDS_P2;PMS_P1;PMS_P2;Temp;Humidity;BMP_temperature;BMP_pressure;BME280_temperature;BME280_humidity;BME280_pressure;Samples;Min_cycle;Max_cycle;Signal;HPM_P1;HPM_P2
2023/05/15 00:00:14;;;;;;;12.43;7.57;;;14.30;99.90;;;;;;5072578;28;20166;-70
2023/05/15 00:02:40;;;;;;;15.60;7.87;;;14.30;99.90;;;;;;5072405;28;20163;-70
2023/05/15 00:05:08;;;;;;;9.37;7.07;;;14.30;99.90;;;;;;5072450;28;20479;-70
2023/05/15 00:07:35;;;;;;;9.37;7.93;;;14.20;99.90;;;;;;5072249;28;20191;-70
2023/05/15 00:10:01;;;;;;;16.90;9.20;;;14.20;99.90;;;;;;5072597;28;20404;-70
2023/05/15 00:12:27;;;;;;;11.27;9.17;;;14.20;99.90;;;;;;5072443;28;20415;-70
2023/05/15 00:14:53;;;;;;;11.90;8.87;;;14.20;99.90;;;;;;5072251;28;20428;-70
2023/05/15 00:17:18;;;;;;;15.07;9.70;;;14.20;99.90;;;;;;5071908;28;20498;-70
2023/05/15 00:19:44;;;;;;;12.77;8.60;;;14.10;99.90;;;;;;5054199;28;20557;-70
2023/05/15 00:22:10;;;;;;;14.17;9.07;;;14.10;99.90;;;;;;5072318;28;20651;-70
2023/05/15 00:24:35;;;;;;;13.40;8.70;;;14.10;99.90;;;;;;5071700;28;20404;-70
2023/05/15 00:27:01;;;;;;;12.67;8.30;;;14.10;99.90;;;;;;5071882;28;20201;-70
2023/05/15 00:29:27;;;;;;;9.63;8.00;;;14.10;99.90;;;;;;5072048;28;20170;-70
2023/05/15 00:31:52;;;;;;;9.17;8.20;;;14.00;99.90;;;;;;5071983;28;20166;-70
2023/05/15 00:34:18;;;;;;;14.13;9.60;;;14.10;99.90;;;;;;5071781;28;20173;-70
2023/05/15 00:36:44;;;;;;;10.60;8.17;;;14.00;99.90;;;;;;5071732;28;20190;-70
2023/05/15 00:39:10;;;;;;;16.37;10.10;;;14.00;99.90;;;;;;5071771;28;20181;-70
2023/05/15 00:41:36;;;;;;;11.40;9.43;;;14.00;99.90;;;;;;5072052;28;20637;-70
2023/05/15 00:44:02;;;;;;;10.73;9.60;;;14.00;99.90;;;;;;5071960;28;20957;-70
2023/05/15 00:46:31;;;;;;;13.10;10.50;;;13.90;99.90;;;;;;5071903;28;20934;-70
2023/05/15 00:48:57;;;;;;;12.60;9.60;;;13.90;99.90;;;;;;5071575;28;20758;-70
2023/05/15 00:51:23;;;;;;;11.23;8.33;;;13.90;99.90;;;;;;5071972;28;20400;-70
2023/05/15 00:53:51;;;;;;;11.97;10.27;;;14.00;99.90;;;;;;5071947;28;20405;-71
2023/05/15 00:56:17;;;;;;;12.57;9.20;;;14.10;99.90;;;;;;5071775;28;20411;-70
2023/05/15 00:58:45;;;;;;;11.30;9.20;;;14.20;99.90;;;;;;5071545;28;20802;-70
2023/05/15 01:01:12;;;;;;;14.00;10.50;;;14.30;99.90;;;;;;5071725;28;20404;-70
2023/05/15 01:03:38;;;;;;;16.67;10.50;;;14.30;99.90;;;;;;5071773;28;20491;-70
2023/05/15 01:06:04;;;;;;;15.77;11.07;;;14.50;99.90;;;;;;5071688;28;20487;-71
2023/05/15 01:08:37;;;;;;;15.17;10.83;;;14.50;99.90;;;;;;5071473;28;20204;-70
2023/05/15 01:11:05;;;;;;;17.00;9.53;;;14.60;99.90;;;;;;5071640;28;20454;-71
2023/05/15 01:13:31;;;;;;;15.57;10.50;;;14.70;99.90;;;;;;5071564;28;20428;-70
2023/05/15 01:15:58;;;;;;;17.30;10.40;;;14.80;99.90;;;;;;5071493;28;20408;-71
2023/05/15 01:18:30;;;;;;;14.43;10.57;;;14.90;99.90;;;;;;5071282;28;20198;-70
2023/05/15 01:20:56;;;;;;;17.03;12.03;;;14.90;99.90;;;;;;5071567;28;20428;-70
2023/05/15 01:23:40;;;;;;;15.73;11.63;;;15.00;99.90;;;;;;5071381;28;20397;-71
2023/05/15 01:26:33;;;;;;;14.07;10.93;;;15.00;99.90;;;;;;5071273;28;20162;-71
2023/05/15 01:29:18;;;;;;;17.13;11.50;;;15.00;99.90;;;;;;5071349;28;20484;-70
2023/05/15 01:31:52;;;;;;;20.03;13.80;;;15.00;99.90;;;;;;5071494;28;20404;-72
2023/05/15 01:34:22;;;;;;;19.60;13.20;;;15.00;99.90;;;;;;5071531;28;20400;-72
2023/05/15 01:36:52;;;;;;;18.50;12.23;;;15.00;99.90;;;;;;5071120;28;20921;-71
2023/05/15 01:39:22;;;;;;;20.50;13.50;;;15.00;99.90;;;;;;5073954;28;20399;-72
2023/05/15 01:41:50;;;;;;;16.67;13.20;;;15.00;99.90;;;;;;5075167;28;20882;-71
2023/05/15 01:44:25;;;;;;;18.50;12.50;;;15.00;99.90;;;;;;5075159;28;20401;-71
2023/05/15 01:46:53;;;;;;;19.43;13.27;;;15.00;99.90;;;;;;5074756;28;20923;-70
2023/05/15 01:49:23;;;;;;;17.50;12.90;;;15.10;99.90;;;;;;5075148;28;20401;-71
2023/05/15 01:51:53;;;;;;;18.10;13.80;;;15.10;99.90;;;;;;5075089;28;20396;-70
2023/05/15 01:54:21;;;;;;;16.70;12.90;;;15.00;99.90;;;;;;5075054;28;20392;-71
2023/05/15 01:56:47;;;;;;;16.17;11.90;;;15.00;99.90;;;;;;5074700;28;20416;-71
2023/05/15 01:59:15;;;;;;;23.00;13.10;;;14.90;99.90;;;;;;5074821;28;20762;-71
2023/05/15 02:01:41;;;;;;;19.13;13.67;;;14.80;99.90;;;;;;5056884;28;20404;-72
2023/05/15 02:04:08;;;;;;;21.97;13.40;;;14.80;99.90;;;;;;5074804;28;20396;-72
2023/05/15 02:06:34;;;;;;;25.60;14.63;;;14.80;99.90;;;;;;5074629;28;20424;-72
2023/05/15 02:09:02;;;;;;;24.70;15.60;;;14.70;99.90;;;;;;5056607;28;20448;-72
2023/05/15 02:11:27;;;;;;;23.57;15.37;;;14.80;99.90;;;;;;5074661;28;20397;-72
2023/05/15 02:13:55;;;;;;;27.23;15.57;;;14.80;99.90;;;;;;5074560;28;21002;-71
2023/05/15 02:16:21;;;;;;;22.77;14.30;;;14.80;99.90;;;;;;5074470;28;20182;-72
2023/05/15 02:18:47;;;;;;;21.83;14.10;;;14.80;99.90;;;;;;5074164;28;20455;-72
2023/05/15 02:21:12;;;;;;;22.87;14.40;;;14.80;99.90;;;;;;5074566;28;20176;-72
2023/05/15 02:23:39;;;;;;;24.67;15.00;;;14.80;99.90;;;;;;5074507;28;20163;-72
2023/05/15 02:26:17;;;;;;;24.10;16.23;;;14.80;99.90;;;;;;5074454;28;20465;-71
2023/05/15 02:29:31;;;;;;;24.70;15.67;;;14.80;99.90;;;;;;5056244;28;20409;-71
2023/05/15 02:32:18;;;;;;;21.20;15.20;;;14.80;99.90;;;;;;5052327;28;20470;-71
2023/05/15 02:35:09;;;;;;;20.30;13.23;;;14.90;99.90;;;;;;5074273;28;20422;-72
2023/05/15 02:37:38;;;;;;;27.20;17.33;;;14.90;99.90;;;;;;5073930;28;20565;-72
2023/05/15 02:40:07;;;;;;;21.90;16.30;;;14.90;99.90;;;;;;5074268;28;20404;-71
2023/05/15 02:42:34;;;;;;;23.40;17.23;;;14.90;99.90;;;;;;5073499;28;20408;-71
2023/05/15 02:45:01;;;;;;;29.03;15.93;;;14.90;99.90;;;;;;5074081;28;20396;-72
2023/05/15 02:47:28;;;;;;;24.40;16.70;;;14.90;99.90;;;;;;5073742;28;20428;-71
2023/05/15 02:49:54;;;;;;;22.07;16.10;;;15.00;99.90;;;;;;5072791;28;20423;-71
2023/05/15 02:52:21;;;;;;;23.93;16.70;;;15.00;99.90;;;;;;5074017;28;20420;-71
2023/05/15 02:54:46;;;;;;;33.73;18.67;;;15.00;99.90;;;;;;5073857;28;20176;-71
2023/05/15 02:57:12;;;;;;;32.47;16.60;;;15.00;99.90;;;;;;5073514;28;20891;-72
2023/05/15 02:59:37;;;;;;;24.57;16.80;;;15.00;99.90;;;;;;5073764;28;20173;-72
2023/05/15 03:02:04;;;;;;;23.23;16.67;;;15.00;99.90;;;;;;5073857;28;20158;-72
2023/05/15 03:04:29;;;;;;;26.83;16.00;;;15.00;99.90;;;;;;5073760;28;20265;-71
2023/05/15 03:06:55;;;;;;;27.37;15.40;;;15.00;99.90;;;;;;5073363;28;20817;-71
2023/05/15 03:09:20;;;;;;;30.67;17.40;;;14.90;99.90;;;;;;5073598;28;20512;-71
2023/05/15 03:11:46;;;;;;;28.90;16.73;;;15.00;99.90;;;;;;5073620;28;20171;-71
2023/05/15 03:14:11;;;;;;;23.10;16.03;;;15.00;99.90;;;;;;5073417;28;20182;-71
2023/05/15 03:16:37;;;;;;;27.00;18.07;;;14.90;99.90;;;;;;5073321;28;20621;-72
2023/05/15 03:19:03;;;;;;;29.17;17.40;;;14.90;99.90;;;;;;5073109;28;20186;-72
2023/05/15 03:21:29;;;;;;;29.30;18.10;;;14.90;99.90;;;;;;5073319;28;20412;-72
2023/05/15 03:23:55;;;;;;;23.27;15.10;;;14.90;99.90;;;;;;5055469;28;20173;-71
2023/05/15 03:26:20;;;;;;;32.63;16.57;;;14.90;99.90;;;;;;5073129;28;20258;-72
2023/05/15 03:28:46;;;;;;;30.10;17.03;;;14.80;99.90;;;;;;5072815;28;20193;-72
2023/05/15 03:31:13;;;;;;;28.07;16.33;;;14.80;99.90;;;;;;5072785;28;20177;-71
2023/05/15 03:33:39;;;;;;;22.43;14.67;;;14.80;99.90;;;;;;5072867;28;20162;-71
2023/05/15 03:36:05;;;;;;;22.87;14.47;;;14.80;99.90;;;;;;5072962;28;20404;-71
2023/05/15 03:38:31;;;;;;;32.00;17.43;;;14.80;99.90;;;;;;5072722;28;20844;-71
2023/05/15 03:40:56;;;;;;;27.70;16.27;;;14.80;99.90;;;;;;5072908;28;20397;-71
2023/05/15 03:43:22;;;;;;;28.93;17.70;;;14.70;99.90;;;;;;5072962;28;20166;-71
2023/05/15 03:45:48;;;;;;;27.30;17.07;;;14.70;99.90;;;;;;5072861;28;20166;-71
2023/05/15 03:48:14;;;;;;;25.20;16.37;;;14.70;99.90;;;;;;5072479;28;20194;-71
2023/05/15 03:50:39;;;;;;;29.33;17.87;;;14.70;99.90;;;;;;5072791;28;20400;-71
2023/05/15 03:53:05;;;;;;;23.87;15.73;;;14.60;99.90;;;;;;5072816;28;20249;-72
2023/05/15 03:55:31;;;;;;;22.47;14.47;;;14.60;99.90;;;;;;5072759;28;20546;-71
2023/05/15 03:57:57;;;;;;;27.63;18.03;;;14.60;99.90;;;;;;5072202;28;20654;-72
2023/05/15 04:00:23;;;;;;;24.70;15.40;;;14.60;99.90;;;;;;5072724;28;20201;-71
2023/05/15 04:02:48;;;;;;;25.80;16.63;;;14.60;99.90;;;;;;5072244;28;20408;-71
2023/05/15 04:05:14;;;;;;;29.90;16.53;;;14.50;99.90;;;;;;5072613;28;20200;-71
2023/05/15 04:07:39;;;;;;;30.70;17.90;;;14.50;99.90;;;;;;5072175;28;20685;-71
2023/05/15 04:10:05;;;;;;;32.77;17.60;;;14.60;99.90;;;;;;5072433;28;20241;-71
2023/05/15 04:12:33;;;;;;;26.37;16.27;;;14.60;99.90;;;;;;5072106;28;20245;-72
2023/05/15 04:15:18;;;;;;;25.13;16.23;;;14.60;99.90;;;;;;5072098;28;20507;-71
2023/05/15 04:17:45;;;;;;;26.50;17.97;;;14.60;99.90;;;;;;5071901;28;20467;-72
2023/05/15 04:20:15;;;;;;;35.47;20.00;;;14.60;99.90;;;;;;5072340;28;20428;-71
2023/05/15 04:22:42;;;;;;;26.80;17.07;;;14.60;99.90;;;;;;5072228;28;20806;-71
2023/05/15 04:25:09;;;;;;;28.63;18.17;;;14.60;99.90;;;;;;5072147;28;20450;-71
2023/05/15 04:27:36;;;;;;;28.50;18.37;;;14.60;99.90;;;;;;5071539;28;20424;-71
2023/05/15 04:30:02;;;;;;;32.17;17.20;;;14.60;99.90;;;;;;5072017;28;20403;-72
2023/05/15 04:32:29;;;;;;;29.10;15.70;;;14.60;99.90;;;;;;5072195;28;20435;-72
2023/05/15 04:34:55;;;;;;;27.33;16.40;;;14.70;99.90;;;;;;5072132;28;20392;-71
2023/05/15 04:37:20;;;;;;;30.60;18.07;;;14.70;99.90;;;;;;5071485;28;20451;-71
2023/05/15 04:39:46;;;;;;;26.57;16.30;;;14.70;99.90;;;;;;5072069;28;20163;-71
2023/05/15 04:42:12;;;;;;;25.33;17.23;;;14.70;99.90;;;;;;5071872;28;20167;-71
2023/05/15 04:44:37;;;;;;;24.13;15.60;;;14.70;99.90;;;;;;5072085;28;20639;-72
2023/05/15 04:47:03;;;;;;;22.30;14.93;;;14.70;99.90;;;;;;5071554;28;20189;-72
2023/05/15 04:49:28;;;;;;;23.70;15.43;;;14.70;99.90;;;;;;5072004;28;20166;-72
2023/05/15 04:51:54;;;;;;;22.87;15.80;;;14.70;99.90;;;;;;5071957;28;20158;-71
2023/05/15 04:54:20;;;;;;;43.63;23.07;;;14.80;99.90;;;;;;5071919;28;20233;-71
2023/05/15 04:56:45;;;;;;;39.37;20.37;;;14.80;99.90;;;;;;5071765;28;20236;-71
2023/05/15 04:59:12;;;;;;;35.00;20.00;;;14.80;99.90;;;;;;5071424;28;20552;-72
2023/05/15 05:01:38;;;;;;;30.77;17.90;;;14.90;99.90;;;;;;5071875;28;20158;-71
2023/05/15 05:04:03;;;;;;;28.17;17.37;;;14.90;99.90;;;;;;5071786;28;20839;-71
2023/05/15 05:06:29;;;;;;;27.80;15.40;;;15.00;99.90;;;;;;5071735;28;20280;-71
2023/05/15 05:08:55;;;;;;;29.37;16.30;;;15.10;99.90;;;;;;5071464;28;20174;-71
2023/05/15 05:11:20;;;;;;;37.30;18.40;;;15.20;99.90;;;;;;5071742;28;20258;-71
2023/05/15 05:13:46;;;;;;;28.57;17.90;;;15.30;99.90;;;;;;5073481;28;20189;-71
2023/05/15 05:16:11;;;;;;;28.63;17.80;;;15.40;99.90;;;;;;5075710;28;20158;-72
2023/05/15 05:18:37;;;;;;;27.50;18.13;;;15.40;99.90;;;;;;5075156;28;20667;-72
2023/05/15 05:21:03;;;;;;;33.40;18.87;;;15.50;99.90;;;;;;5075712;28;20241;-71
2023/05/15 05:23:29;;;;;;;25.97;17.03;;;15.60;99.90;;;;;;5075628;28;20827;-71
2023/05/15 05:25:55;;;;;;;29.03;18.80;;;15.60;99.90;;;;;;5074992;28;20399;-71
2023/05/15 05:28:22;;;;;;;26.87;16.83;;;15.60;99.90;;;;;;5075197;28;20427;-71
2023/05/15 05:30:47;;;;;;;26.87;16.77;;;15.60;99.90;;;;;;5075523;28;20428;-71
2023/05/15 05:33:14;;;;;;;17.70;13.40;;;15.60;99.90;;;;;;5075449;28;20770;-71
2023/05/15 05:35:39;;;;;;;22.17;15.40;;;15.60;99.90;;;;;;5075454;28;20712;-71
2023/05/15 05:38:05;;;;;;;24.33;16.50;;;15.60;99.90;;;;;;5074948;28;20523;-71
2023/05/15 05:40:30;;;;;;;25.27;16.10;;;15.60;99.90;;;;;;5075335;28;20228;-71
2023/05/15 05:43:00;;;;;;;26.97;17.23;;;15.50;99.90;;;;;;5075238;28;20528;-71
2023/05/15 05:45:26;;;;;;;29.40;18.27;;;15.40;99.90;;;;;;5057237;28;20198;-71
2023/05/15 05:47:51;;;;;;;23.50;16.20;;;15.30;99.90;;;;;;5074802;28;20964;-71
2023/05/15 05:50:17;;;;;;;24.00;15.97;;;15.30;99.90;;;;;;5075185;28;20405;-75
2023/05/15 05:52:43;;;;;;;21.67;15.47;;;15.30;99.90;;;;;;5075106;28;20253;-71
2023/05/15 05:55:08;;;;;;;20.37;14.27;;;15.20;99.90;;;;;;5074956;28;20600;-71
2023/05/15 05:57:34;;;;;;;22.17;14.60;;;15.20;99.90;;;;;;5074621;28;20574;-71
2023/05/15 06:00:00;;;;;;;21.20;15.10;;;15.20;99.90;;;;;;5074911;28;20482;-71
2023/05/15 06:02:25;;;;;;;27.23;16.50;;;15.20;99.90;;;;;;5074958;28;20163;-71
2023/05/15 06:04:51;;;;;;;22.10;14.60;;;15.20;99.90;;;;;;5074905;28;20665;-71
2023/05/15 06:07:17;;;;;;;23.03;15.10;;;15.20;99.90;;;;;;5074549;28;20188;-71
2023/05/15 06:09:44;;;;;;;21.50;13.53;;;15.30;99.90;;;;;;5074789;28;20167;-71
2023/05/15 06:12:10;;;;;;;28.80;17.47;;;15.30;99.90;;;;;;5074702;28;20197;-71
2023/05/15 06:14:35;;;;;;;26.13;15.03;;;15.30;99.90;;;;;;5074616;28;20517;-71
2023/05/15 06:17:01;;;;;;;27.90;17.03;;;15.40;99.90;;;;;;5074190;28;20201;-71
2023/05/15 06:19:27;;;;;;;26.30;17.83;;;15.40;99.90;;;;;;5074686;28;20241;-71
2023/05/15 06:21:53;;;;;;;21.50;14.40;;;15.50;99.90;;;;;;5074584;28;20631;-71
2023/05/15 06:24:18;;;;;;;23.83;14.83;;;15.60;99.90;;;;;;5074128;28;20396;-71
2023/05/15 06:26:44;;;;;;;23.03;15.03;;;15.70;99.90;;;;;;5074406;28;20194;-71
2023/05/15 06:29:10;;;;;;;24.73;15.57;;;15.80;99.90;;;;;;5074141;28;20654;-71
2023/05/15 06:31:35;;;;;;;25.83;15.77;;;16.00;99.90;;;;;;5056415;28;20205;-71
2023/05/15 06:34:01;;;;;;;22.33;17.53;;;16.00;99.90;;;;;;5074380;28;20177;-71
2023/05/15 06:36:27;;;;;;;25.80;17.13;;;16.10;99.90;;;;;;5074259;28;20209;-71
2023/05/15 06:38:52;;;;;;;27.03;18.40;;;16.10;99.90;;;;;;5073840;28;20827;-71
2023/05/15 06:41:18;;;;;;;26.10;17.17;;;16.10;99.90;;;;;;5074142;28;20170;-71
2023/05/15 06:43:43;;;;;;;29.03;18.03;;;16.10;99.90;;;;;;5074137;28;20184;-71
2023/05/15 06:46:09;;;;;;;28.80;18.60;;;16.10;99.90;;;;;;5074001;28;20654;-71
2023/05/15 06:48:35;;;;;;;28.77;19.40;;;16.20;99.90;;;;;;5073862;28;20254;-71
2023/05/15 06:51:00;;;;;;;29.97;18.80;;;16.20;99.90;;;;;;5074025;28;20628;-71
2023/05/15 06:53:28;;;;;;;25.50;18.10;;;16.10;99.90;;;;;;5073940;28;20407;-71
2023/05/15 06:55:53;;;;;;;33.67;18.47;;;16.20;99.90;;;;;;5073916;28;20170;-71
2023/05/15 06:58:19;;;;;;;25.10;17.90;;;16.20;99.90;;;;;;5073494;28;21197;-71
2023/05/15 07:00:45;;;;;;;32.27;17.70;;;16.20;99.90;;;;;;5073884;28;20162;-71
2023/05/15 07:03:13;;;;;;;25.83;18.10;;;16.20;99.90;;;;;;5073711;28;20215;-71
2023/05/15 07:05:38;;;;;;;28.57;19.27;;;16.30;99.90;;;;;;5073800;28;20401;-71
2023/05/15 07:08:04;;;;;;;26.30;18.17;;;16.40;99.90;;;;;;5073175;28;20425;-71
2023/05/15 07:10:30;;;;;;;27.40;18.60;;;16.30;99.90;;;;;;5055742;28;20200;-71
2023/05/15 07:12:55;;;;;;;20.27;17.30;;;16.40;99.90;;;;;;5073418;28;20535;-71
2023/05/15 07:15:21;;;;;;;26.17;16.63;;;16.50;99.90;;;;;;5073587;28;20177;-71
2023/05/15 07:17:46;;;;;;;30.03;18.67;;;16.50;99.90;;;;;;5073095;28;20236;-71
2023/05/15 07:20:12;;;;;;;29.97;20.70;;;16.50;99.90;;;;;;5055624;28;20169;-71
2023/05/15 07:22:38;;;;;;;24.77;17.90;;;16.50;99.90;;;;;;5073402;28;20162;-71
2023/05/15 07:25:04;;;;;;;28.80;17.60;;;16.50;99.90;;;;;;5073346;28;20170;-71
2023/05/15 07:27:29;;;;;;;26.97;18.80;;;16.50;99.90;;;;;;5072910;28;20428;-71
2023/05/15 07:29:55;;;;;;;25.13;18.77;;;16.60;99.90;;;;;;5073283;28;20400;-71
2023/05/15 07:32:20;;;;;;;25.77;18.93;;;16.70;99.90;;;;;;5073321;28;20166;-71
2023/05/15 07:34:46;;;;;;;29.93;19.50;;;16.80;99.90;;;;;;5073234;28;20364;-71
2023/05/15 07:37:11;;;;;;;24.17;18.33;;;17.00;99.90;;;;;;5071973;28;20658;-71
2023/05/15 07:39:37;;;;;;;25.07;17.20;;;17.10;99.90;;;;;;5072859;28;20162;-69
2023/05/15 07:42:02;;;;;;;24.40;18.13;;;17.20;99.90;;;;;;5073096;28;20166;-69
2023/05/15 07:44:28;;;;;;;26.03;17.70;;;17.40;99.90;;;;;;5073063;28;20629;-70
2023/05/15 07:46:55;;;;;;;24.47;15.33;;;17.60;99.90;;;;;;5072623;28;20572;-69
2023/05/15 07:49:20;;;;;;;24.97;16.60;;;17.70;99.90;;;;;;5072972;28;20159;-70
2023/05/15 07:51:46;;;;;;;27.00;18.83;;;17.90;99.90;;;;;;5072735;28;20411;-70
2023/05/15 07:54:11;;;;;;;27.67;17.47;;;18.00;99.90;;;;;;5072779;28;20249;-69
2023/05/15 07:56:37;;;;;;;24.67;16.40;;;18.00;99.90;;;;;;5072778;28;20707;-69
2023/05/15 07:59:03;;;;;;;26.00;17.40;;;18.10;99.90;;;;;;5072468;28;20204;-70
2023/05/15 08:01:28;;;;;;;23.20;15.30;;;18.10;99.90;;;;;;5072713;28;20419;-70
2023/05/15 08:03:54;;;;;;;27.30;17.70;;;18.30;99.90;;;;;;5054745;28;20517;-69
2023/05/15 08:06:19;;;;;;;29.77;18.33;;;18.30;99.90;;;;;;5072460;28;20581;-69
2023/05/15 08:08:45;;;;;;;21.67;16.80;;;18.40;99.90;;;;;;5072265;28;20517;-71
2023/05/15 08:11:10;;;;;;;23.53;15.80;;;18.50;99.90;;;;;;5072508;28;20262;-69
2023/05/15 08:13:36;;;;;;;28.70;15.80;;;18.70;99.90;;;;;;5072391;28;20182;-70
2023/05/15 08:16:02;;;;;;;25.67;17.23;;;19.00;99.90;;;;;;5072338;28;20171;-69
2023/05/15 08:18:28;;;;;;;22.70;14.50;;;19.40;99.90;;;;;;5072171;28;20194;-70
2023/05/15 08:20:53;;;;;;;21.70;14.37;;;19.90;99.90;;;;;;5054381;28;20928;-70
2023/05/15 08:23:19;;;;;;;22.37;16.10;;;20.40;99.90;;;;;;5072242;28;20185;-70
2023/05/15 08:25:44;;;;;;;18.80;13.40;;;20.80;99.90;;;;;;5072281;28;20163;-70
2023/05/15 08:28:10;;;;;;;21.03;15.07;;;21.40;99.90;;;;;;5071938;28;20209;-70
2023/05/15 08:30:36;;;;;;;16.13;12.93;;;22.00;99.90;;;;;;5072387;28;20228;-70
2023/05/15 08:33:01;;;;;;;23.30;15.10;;;22.80;99.90;;;;;;5072227;28;20216;-70
2023/05/15 08:35:27;;;;;;;18.17;11.33;;;23.60;99.90;;;;;;5054107;28;20635;-70
2023/05/15 08:37:52;;;;;;;14.00;12.50;;;24.30;99.90;;;;;;5071689;28;20202;-70
2023/05/15 08:40:18;;;;;;;19.90;14.43;;;24.80;99.20;;;;;;5072081;28;20166;-70
2023/05/15 08:42:48;;;;;;;16.33;13.33;;;25.10;95.00;;;;;;5072120;28;20401;-70
2023/05/15 08:45:14;;;;;;;12.87;10.60;;;25.40;90.50;;;;;;5072083;28;20162;-70
2023/05/15 08:47:41;;;;;;;12.37;10.97;;;25.90;89.60;;;;;;5070868;28;20421;-70
2023/05/15 08:50:11;;;;;;;14.40;10.80;;;27.20;85.90;;;;;;5071899;28;20181;-71
2023/05/15 08:52:40;;;;;;;15.07;8.90;;;29.30;75.00;;;;;;5054148;28;20898;-71
2023/05/15 08:55:07;;;;;;;14.73;13.23;;;32.00;62.80;;;;;;5071902;28;20416;-70
2023/05/15 08:57:32;;;;;;;14.30;12.10;;;32.90;49.50;;;;;;5071403;28;20855;-68
2023/05/15 08:59:59;;;;;;;12.40;11.10;;;32.90;48.10;;;;;;5054236;28;20574;-68
2023/05/15 09:02:25;;;;;;;11.57;10.47;;;32.90;47.20;;;;;;5071839;28;20166;-68
2023/05/15 09:04:51;;;;;;;10.90;9.80;;;32.60;46.20;;;;;;5071800;28;20420;-68
2023/05/15 09:07:17;;;;;;;10.73;9.00;;;33.10;46.20;;;;;;5071469;28;20433;-69
2023/05/15 09:09:43;;;;;;;10.37;9.37;;;33.50;44.10;;;;;;5071916;28;20448;-68
2023/05/15 09:12:13;;;;;;;8.73;7.90;;;33.60;43.00;;;;;;5071607;28;20476;-68
2023/05/15 09:14:38;;;;;;;10.23;9.23;;;34.40;43.30;;;;;;5071909;28;20938;-69
2023/05/15 09:17:04;;;;;;;9.63;8.50;;;35.80;42.00;;;;;;5071380;28;20462;-68
2023/05/15 09:19:32;;;;;;;13.00;11.17;;;36.90;38.90;;;;;;5071789;28;20170;-67
2023/05/15 09:22:19;;;;;;;9.03;7.67;;;37.70;36.40;;;;;;5071761;28;20487;-68
2023/05/15 09:24:50;;;;;;;9.17;8.30;;;38.60;36.10;;;;;;5071542;28;20414;-69
2023/05/15 09:27:16;;;;;;;9.43;8.63;;;38.70;34.30;;;;;;5071220;28;20399;-68
2023/05/15 09:29:41;;;;;;;8.30;7.50;;;38.90;33.60;;;;;;5071591;28;20415;-67
2023/05/15 09:32:09;;;;;;;8.03;7.33;;;39.50;33.90;;;;;;5071605;28;20236;-67
2023/05/15 09:34:36;;;;;;;9.27;7.67;;;40.70;33.00;;;;;;5071506;28;20177;-67
2023/05/15 09:37:04;;;;;;;8.47;7.70;;;41.80;31.50;;;;;;5071029;28;20399;-67
2023/05/15 09:39:30;;;;;;;10.50;9.50;;;43.30;30.60;;;;;;5071494;28;20892;-67
2023/05/15 09:42:09;;;;;;;8.13;7.53;;;43.80;28.90;;;;;;5071554;28;20425;-67
2023/05/15 09:44:39;;;;;;;9.60;8.73;;;43.40;28.30;;;;;;5071581;28;20181;-68
2023/05/15 09:47:05;;;;;;;9.13;8.40;;;42.80;28.30;;;;;;5070837;28;20413;-68
2023/05/15 09:49:30;;;;;;;7.43;6.87;;;42.60;28.10;;;;;;5071417;28;20367;-69
2023/05/15 09:51:59;;;;;;;6.90;6.30;;;42.40;28.20;;;;;;5071157;28;20173;-67
2023/05/15 09:54:31;;;;;;;7.20;6.50;;;42.60;28.80;;;;;;5071000;28;20166;-68
2023/05/15 09:57:10;;;;;;;7.10;6.60;;;43.70;28.00;;;;;;5071033;28;20815;-67
2023/05/15 09:59:44;;;;;;;6.73;6.20;;;44.80;27.10;;;;;;5072884;28;20381;-67
2023/05/15 10:02:34;;;;;;;9.50;6.90;;;45.70;27.10;;;;;;5075057;28;20393;-67
2023/05/15 10:04:59;;;;;;;6.60;6.10;;;46.10;25.90;;;;;;5074998;28;20367;-69
2023/05/15 10:07:33;;;;;;;7.50;6.90;;;46.30;26.00;;;;;;5074515;28;20925;-69
2023/05/15 10:10:03;;;;;;;7.50;6.80;;;46.80;25.70;;;;;;5074871;28;20173;-67
2023/05/15 10:12:30;;;;;;;9.30;8.40;;;47.40;24.60;;;;;;5075163;28;20367;-68
2023/05/15 10:14:57;;;;;;;6.83;6.33;;;48.00;24.60;;;;;;5074761;28;20456;-67
2023/05/15 10:17:23;;;;;;;6.57;6.07;;;48.80;24.50;;;;;;5074353;28;20497;-67
2023/05/15 10:19:52;;;;;;;5.30;4.90;;;49.60;23.80;;;;;;5074667;28;20382;-67
2023/05/15 10:22:25;;;;;;;13.13;5.80;;;50.10;23.40;;;;;;5074691;28;20922;-69
2023/05/15 10:25:01;;;;;;;6.73;6.13;;;50.70;23.10;;;;;;5074621;28;20403;-67
2023/05/15 10:27:27;;;;;;;8.30;7.60;;;51.20;22.90;;;;;;5074282;28;20431;-67
2023/05/15 10:29:55;;;;;;;7.73;6.93;;;51.50;22.50;;;;;;5074494;28;20981;-69
2023/05/15 10:32:21;;;;;;;7.20;6.37;;;51.90;22.30;;;;;;5074344;28;20443;-68
2023/05/15 10:34:47;;;;;;;6.87;6.37;;;51.70;21.70;;;;;;5074292;28;20403;-69
2023/05/15 10:37:13;;;;;;;6.60;6.10;;;51.70;21.50;;;;;;5073938;28;20428;-68
2023/05/15 10:39:40;;;;;;;7.60;7.10;;;52.10;21.70;;;;;;5074318;28;20425;-67
2023/05/15 10:42:07;;;;;;;7.20;6.60;;;52.20;21.20;;;;;;5074222;28;20405;-68
2023/05/15 10:44:32;;;;;;;6.30;5.90;;;52.30;21.10;;;;;;5074224;28;20409;-68
2023/05/15 10:46:59;;;;;;;7.00;6.50;;;52.70;21.20;;;;;;5073744;28;20424;-67
2023/05/15 10:49:24;;;;;;;7.23;6.73;;;52.80;21.10;;;;;;5074192;28;20513;-67
2023/05/15 10:51:51;;;;;;;7.43;6.83;;;51.70;20.30;;;;;;5074008;28;20551;-67
2023/05/15 10:54:17;;;;;;;6.57;6.17;;;49.80;20.50;;;;;;5074023;28;20163;-67
2023/05/15 10:56:42;;;;;;;7.10;6.50;;;48.90;21.40;;;;;;5073764;28;20423;-67
2023/05/15 10:59:10;;;;;;;8.67;7.97;;;49.20;21.60;;;;;;5073506;28;20263;-67
2023/05/15 11:01:37;;;;;;;5.90;5.40;;;49.50;21.30;;;;;;5074066;28;20716;-67
2023/05/15 11:04:16;;;;;;;7.53;6.90;;;50.20;21.50;;;;;;5073559;28;20712;-68
2023/05/15 11:06:47;;;;;;;8.40;7.80;;;50.90;21.50;;;;;;5073506;28;21063;-67
2023/05/15 11:09:21;;;;;;;7.67;6.97;;;51.10;20.40;;;;;;5073082;28;20445;-67
2023/05/15 11:12:19;;;;;;;7.73;7.13;;;50.90;20.30;;;;;;5072411;28;20489;-69
2023/05/15 11:14:50;;;;;;;8.27;6.10;;;51.30;20.50;;;;;;5018566;28;20493;-69
2023/05/15 11:17:17;;;;;;;6.60;6.20;;;51.80;20.50;;;;;;5072926;28;20424;-69
2023/05/15 11:19:48;;;;;;;6.80;6.23;;;52.20;20.40;;;;;;5073321;28;20876;-69
2023/05/15 11:22:13;;;;;;;9.30;8.57;;;52.50;19.90;;;;;;5073273;28;20761;-69
2023/05/15 11:24:59;;;;;;;7.43;6.80;;;51.10;19.30;;;;;;5073277;28;20449;-68
2023/05/15 11:27:37;;;;;;;7.27;6.77;;;50.20;19.60;;;;;;5072939;28;20261;-68
2023/05/15 11:30:10;;;;;;;6.17;5.77;;;49.80;19.80;;;;;;5073447;28;20415;-69
2023/05/15 11:32:43;;;;;;;6.70;6.10;;;49.70;19.90;;;;;;5073156;28;20814;-67
2023/05/15 11:35:10;;;;;;;5.90;5.40;;;49.90;20.30;;;;;;5073203;28;20401;-68
2023/05/15 11:37:45;;;;;;;6.23;5.77;;;49.80;19.90;;;;;;5072734;28;20505;-69
2023/05/15 11:40:25;;;;;;;7.07;6.47;;;49.30;20.20;;;;;;5073170;28;20401;-68
2023/05/15 11:43:03;;;;;;;7.27;6.57;;;49.10;20.60;;;;;;5073081;28;20374;-70
2023/05/15 11:45:35;;;;;;;7.93;6.67;;;49.00;20.90;;;;;;5073186;28;20916;-68
2023/05/15 11:48:02;;;;;;;6.33;5.80;;;48.70;21.20;;;;;;5072581;28;20439;-69
2023/05/15 11:50:29;;;;;;;6.53;5.87;;;49.10;21.40;;;;;;5072968;28;20397;-69
2023/05/15 11:52:55;;;;;;;8.57;7.87;;;49.80;21.20;;;;;;5072858;28;20383;-68
2023/05/15 11:55:22;;;;;;;10.00;6.03;;;50.20;21.10;;;;;;5072838;28;20415;-67
2023/05/15 11:57:47;;;;;;;6.27;5.87;;;50.40;20.60;;;;;;5072258;28;20224;-68
2023/05/15 12:00:14;;;;;;;7.20;6.60;;;50.90;20.80;;;;;;5072783;28;20371;-69
2023/05/15 12:02:39;;;;;;;8.70;7.20;;;51.40;20.40;;;;;;5072620;28;20392;-68
2023/05/15 12:05:08;;;;;;;7.23;6.47;;;51.70;19.90;;;;;;5072590;28;20454;-67
2023/05/15 12:07:39;;;;;;;6.97;6.37;;;51.70;19.80;;;;;;5072248;28;20239;-68
2023/05/15 12:10:06;;;;;;;6.57;6.03;;;51.60;19.50;;;;;;5072486;28;20408;-67
2023/05/15 12:12:33;;;;;;;7.20;6.70;;;51.80;19.90;;;;;;5072524;28;20539;-67
2023/05/15 12:14:59;;;;;;;5.77;5.43;;;52.10;19.60;;;;;;5072412;28;20511;-67
2023/05/15 12:17:26;;;;;;;6.50;6.00;;;52.20;19.30;;;;;;5071937;28;20527;-67
2023/05/15 12:19:52;;;;;;;6.43;5.90;;;52.30;19.30;;;;;;5072396;28;20158;-67
2023/05/15 12:22:17;;;;;;;7.10;6.47;;;52.50;19.40;;;;;;5072178;28;20922;-68
2023/05/15 12:24:44;;;;;;;6.50;6.00;;;52.30;19.20;;;;;;5072281;28;20169;-69
2023/05/15 12:27:11;;;;;;;6.20;5.63;;;52.20;19.50;;;;;;5071933;28;20182;-68
2023/05/15 12:29:39;;;;;;;6.47;6.10;;;52.10;19.50;;;;;;5072189;28;20408;-69
2023/05/15 12:32:05;;;;;;;6.47;6.07;;;52.20;19.70;;;;;;5072170;28;20769;-68
2023/05/15 12:34:31;;;;;;;6.00;5.50;;;52.10;18.90;;;;;;5072069;28;20397;-67